Flight Track Log - Related Links

Times and Time Zones

All times are in EDT time to prevent confusion due to time zone crossing. See the XOJ552 flight status page for this flight to view local times or setup timezone preferences in your user account.

Time Position Orientation Groundspeed Altitude Reporting Facility
EDT Latitude Longitude Course Direction KTS MPH feet Rate Location/Type
Sun 04:34:40 PM 38.4900 -122.7997 87° East 152 175 1,400  Level Oakland Center
Sun 04:35:43 PM 38.4306 -122.7617 153° Southeast 197 227 6,000 4,113 Climbing Oakland Center
Sun 04:36:44 PM 38.3736 -122.7097 144° Southeast 247 284 9,900 3,463 Climbing Oakland Center
Sun 04:37:00 PM 38.4299 -121.9573 80° East  Level Estimated
Sun 04:37:46 PM 38.3719 -122.6033 91° East 298 343 13,100  Level Oakland Center
Sun 04:38:00 PM 38.4161 -121.8148 90° East  Level Estimated
Sun 04:38:48 PM 38.3731 -122.4858 89° East 324 373 16,800  Level Oakland Center
Sun 04:39:00 PM 38.4021 -121.6725 87° East  Level Estimated
Sun 04:39:50 PM 38.3750 -122.3619 89° East 342 394 20,200  Level Oakland Center
Sun 04:40:52 PM 38.3789 -122.2333 88° East 355 409 23,300 2,952 Climbing Oakland Center
Sun 04:41:54 PM 38.3803 -122.0983 89° East 375 432 26,300 2,780 Climbing Oakland Center
Sun 04:42:55 PM 38.3831 -121.9597 88° East 387 445 29,000 2,439 Climbing Oakland Center
Sun 04:43:57 PM 38.3856 -121.7858 89° East 406 467 31,300 1,984 Climbing Oakland Center
Sun 04:44:59 PM 38.3867 -121.6353 89° East 421 484 33,100 1,887 Climbing Oakland Center
Sun 04:46:01 PM 38.3886 -121.4711 89° East 431 496 35,200 2,081 Climbing Oakland Center
Sun 04:47:03 PM 38.3900 -121.3217 89° East 429 494 37,400 1,935 Climbing Oakland Center
Sun 04:48:05 PM 38.3911 -121.1775 89° East 418 481 39,200 1,366 Climbing Oakland Center
Sun 04:49:06 PM 38.3919 -121.0322 90° East 416 479 40,200 878 Climbing Oakland Center
Sun 04:50:08 PM 38.3928 -120.8847 90° East 419 482 41,000 387 Climbing Oakland Center
Sun 04:51:10 PM 38.3942 -120.7008 89° East 431 496 41,000  Level Oakland Center
Sun 04:52:12 PM 38.3950 -120.5472 90° East 434 499 41,000  Level Oakland Center
Sun 04:53:13 PM 38.3947 -120.3919 90° East 438 504 41,000  Level Oakland Center
Sun 04:54:15 PM 38.3956 -120.2367 90° East 438 504 41,000  Level Oakland Center
Sun 04:55:17 PM 38.3947 -120.0814 90° East 439 505 41,000  Level Oakland Center
Sun 04:56:19 PM 38.3939 -119.9244 90° East 443 510 41,000  Level Oakland Center
Sun 04:57:21 PM 38.3939 -119.7681 90° East 443 510 41,000  Level Oakland Center
Sun 04:58:22 PM 38.3931 -119.5781 90° East 446 513 41,000  Level Oakland Center
Sun 04:59:24 PM 38.3917 -119.4392 91° East 446 513 41,000  Level Oakland Center
Sun 05:00:26 PM 38.3906 -119.2508 90° East 445 512 41,000  Level Oakland Center
Sun 05:01:28 PM 38.3889 -119.0944 91° East 443 510 41,000  Level Oakland Center
Sun 05:02:29 PM 38.3869 -118.9392 91° East 442 509 41,000  Level Oakland Center
Sun 05:03:31 PM 38.3861 -118.7828 90° East 442 509 41,000  Level Oakland Center
Sun 05:04:33 PM 38.3836 -118.6267 91° East 442 509 41,000  Level Oakland Center
Sun 05:05:35 PM 38.3811 -118.4703 91° East 444 511 41,000  Level Oakland Center
Sun 05:06:36 PM 38.3792 -118.3150 91° East 442 509 41,000  Level Oakland Center
Sun 05:07:38 PM 38.3761 -118.1250 91° East 446 513 41,000  Level Oakland Center
Sun 05:08:40 PM 38.3733 -117.9653 91° East 447 514 41,000  Level Oakland Center
Sun 05:09:42 PM 38.3697 -117.8064 92° East 449 517 41,000  Level Oakland Center
Sun 05:10:43 PM 38.3664 -117.6453 91° East 452 520 41,000  Level Oakland Center
Sun 05:11:45 PM 38.3631 -117.4844 91° East 452 520 41,000  Level Oakland Center
Sun 05:12:47 PM 38.3589 -117.3300 92° East 453 521 41,000  Level Oakland Center
Sun 05:13:49 PM 38.3544 -117.1386 92° East 453 521 41,000  Level Oakland Center
Sun 05:14:51 PM 38.3500 -116.9969 92° East 452 520 41,000  Level Oakland Center
Sun 05:15:52 PM 38.3453 -116.8367 92° East 450 518 41,000  Level Oakland Center
Sun 05:16:54 PM 38.3403 -116.6769 92° East 448 516 41,000  Level Oakland Center
Sun 05:17:56 PM 38.3339 -116.4872 92° East 446 513 41,000  Level Oakland Center
Sun 05:18:58 PM 38.3283 -116.3289 93° East 447 514 41,000  Level Oakland Center
Sun 05:19:59 PM 38.3231 -116.1686 92° East 451 519 41,000  Level Oakland Center
Sun 05:21:02 PM 38.3172 -116.0078 93° East 455 524 41,000  Level Oakland Center
Sun 05:22:30 PM 38.3111 -115.7828 92° East 455 524 41,000  Level Salt Lake Center
Sun 05:23:32 PM 38.3053 -115.6211 93° East 457 526 41,000  Level Salt Lake Center
Sun 05:24:34 PM 38.2964 -115.4278 93° East 456 525 41,000  Level Salt Lake Center
Sun 05:25:36 PM 38.2903 -115.2636 93° East 464 534 41,000  Level Salt Lake Center
Sun 05:26:38 PM 38.2833 -115.1011 93° East 463 533 41,000  Level Salt Lake Center
Sun 05:27:40 PM 38.2761 -114.9397 93° East 458 527 41,000 -581 Level Salt Lake Center
Sun 05:28:42 PM 38.2678 -114.7775 94° East 460 529 39,800 -1,306 Descending Salt Lake Center
Sun 05:29:44 PM 38.2603 -114.6125 93° East 467 537 38,300 -1,597 Descending Salt Lake Center
Sun 05:30:46 PM 38.2494 -114.4161 94° East 465 535 36,500 -1,548 Descending Salt Lake Center
Sun 05:31:48 PM 38.2039 -114.2592 110° East 475 547 35,100 -726 Descending Salt Lake Center
Sun 05:32:50 PM 38.1506 -114.1058 114° Southeast 475 547 35,000 -387 Descending Salt Lake Center
Sun 05:33:52 PM 38.0969 -113.9511 114° Southeast 478 550 34,300 -823 Descending Salt Lake Center
Sun 05:34:54 PM 38.0406 -113.7936 114° Southeast 487 560 33,300 -629 Descending Salt Lake Center
Sun 05:35:56 PM 37.9864 -113.6361 114° Southeast 489 563 33,000 -145 Descending Salt Lake Center
Sun 05:36:58 PM 37.9214 -113.4517 114° Southeast 481 554 33,000  Level Salt Lake Center
Sun 05:38:00 PM 37.8581 -113.3000 118° Southeast 484 557 33,000 -387 Level Salt Lake Center
Sun 05:39:02 PM 37.7844 -113.1528 122° Southeast 493 567 32,200 -1,113 Descending Salt Lake Center
Sun 05:40:04 PM 37.7119 -113.0039 122° Southeast 495 570 30,700 -1,500 Descending Salt Lake Center
Sun 05:41:06 PM 37.6372 -112.8519 122° Southeast 495 570 29,100 -1,548 Descending Salt Lake Center
Sun 05:42:08 PM 37.5619 -112.6992 122° Southeast 492 566 27,500 -1,548 Descending Salt Lake Center
Sun 05:43:10 PM 37.4906 -112.5575 122° Southeast 483 556 25,900 -1,839 Descending Salt Lake Center
Sun 05:44:12 PM 37.4211 -112.4192 122° Southeast 474 545 23,700 -2,274 Descending Salt Lake Center
Sun 05:45:14 PM 37.3544 -112.2872 122° Southeast 458 527 21,200 -2,661 Descending Salt Lake Center
Sun 05:46:16 PM 37.2769 -112.1367 123° Southeast 435 501 18,200 -2,625 Descending Salt Lake Center
Sun 05:47:06 PM 37.2272 -112.0361 122° Southeast 432 497 16,300 -2,096 Descending Denver Center
Sun 05:47:39 PM 37.2014 -111.9881 124° Southeast 425 489 15,300 -2,589 Descending Los Angeles Center
Sun 05:48:41 PM 37.1308 -111.8481 122° Southeast 409 471 12,200 -2,129 Descending Los Angeles Center
Sun 05:49:43 PM 37.0783 -111.7458 123° Southeast 372 428 10,900 -1,306 Descending Los Angeles Center
Sun 05:50:45 PM 37.0392 -111.6533 118° Southeast 330 380 9,500 -978 Descending Los Angeles Center
Sun 05:51:15 PM 37.0297 -111.6150 107° East 316 364 9,400 -1,174 Descending Denver Center
Sun 05:52:17 PM 37.0144 -111.5122 101° East 269 310 7,700 -1,742 Descending Denver Center
Sun 05:53:19 PM 36.9994 -111.4644 111° Southeast 210 242 5,800 -1,839 Descending Denver Center

Login

Don't have an account? Register now (free) for customized features, flight alerts, and more!